Time;durP1;ratioP1;P1;durP2;ratioP2;P2;SDS_P1;SDS_P2;PMS_P1;PMS_P2;Temp;Humidity;BMP_temperature;BMP_pressure;BME280_temperature;BME280_humidity;BME280_pressure;Samples;Min_cycle;Max_cycle;Signal;HPM_P1;HPM_P2
2022/09/29 00:03:32;;;;;;;1.15;0.55;;;;;;;18.56;47.88;99895.44;16119465;19;129900;-39
2022/09/29 00:08:54;;;;;;;2.15;0.52;;;;;;;18.56;47.60;99895.44;16120559;19;131152;-39
2022/09/29 00:14:15;;;;;;;0.82;0.40;;;;;;;18.55;47.45;99893.78;16133478;19;129773;-39
2022/09/29 00:19:37;;;;;;;1.88;0.70;;;;;;;18.53;47.63;99890.44;16132879;19;129412;-39
2022/09/29 00:24:59;;;;;;;0.95;0.40;;;;;;;18.51;47.78;99887.13;16122520;19;129782;-39
2022/09/29 00:30:20;;;;;;;0.60;0.30;;;;;;;18.51;47.77;99893.50;16121544;19;129871;-39
2022/09/29 00:35:42;;;;;;;0.50;0.50;;;;;;;18.50;47.76;99886.28;16123356;19;129625;-39
2022/09/29 00:41:05;;;;;;;0.95;0.60;;;;;;;18.50;47.28;99885.44;16131324;19;130080;-39
2022/09/29 00:46:32;;;;;;;1.60;0.50;;;;;;;18.50;47.60;99891.84;16129614;19;130614;-39
2022/09/29 00:52:00;;;;;;;0.50;0.40;;;;;;;18.48;47.33;99895.94;16131360;19;129511;-39
2022/09/29 00:57:26;;;;;;;3.42;0.40;;;;;;;18.47;47.75;99897.91;16130239;19;129799;-39
2022/09/29 01:02:54;;;;;;;1.13;0.50;;;;;;;18.46;47.74;99894.28;16131693;19;130350;-40
2022/09/29 01:08:23;;;;;;;0.98;0.57;;;;;;;18.44;47.40;99896.50;16131926;19;132517;-37
2022/09/29 01:13:45;;;;;;;1.42;0.45;;;;;;;18.43;47.73;99886.53;16128591;19;129535;-37
2022/09/29 01:19:17;;;;;;;0.50;0.43;;;;;;;18.44;47.54;99892.91;16130355;19;130212;-37
2022/09/29 01:25:05;;;;;;;0.43;0.43;;;;;;;18.43;47.69;99888.47;16128239;19;129669;-37
2022/09/29 01:30:48;;;;;;;0.50;0.50;;;;;;;18.42;47.38;99890.41;16128003;19;132362;-39
2022/09/29 01:36:34;;;;;;;0.30;0.30;;;;;;;18.39;47.62;99896.47;16131093;19;129912;-40
2022/09/29 01:42:06;;;;;;;0.50;0.45;;;;;;;18.38;47.65;99894.78;16129750;19;130218;-39
2022/09/29 01:47:39;;;;;;;0.75;0.50;;;;;;;18.39;47.40;99893.72;16129878;19;129552;-39
2022/09/29 01:53:08;;;;;;;1.20;0.40;;;;;;;18.38;47.32;99893.97;16128799;19;129572;-39
2022/09/29 01:58:38;;;;;;;0.30;0.30;;;;;;;18.37;47.38;99904.19;16127004;19;129367;-39
2022/09/29 02:04:13;;;;;;;0.82;0.40;;;;;;;18.37;47.40;99897.84;16124163;19;130574;-39
2022/09/29 02:09:40;;;;;;;0.43;0.38;;;;;;;18.36;47.11;99896.16;16128943;19;129516;-40
2022/09/29 02:15:06;;;;;;;0.10;0.10;;;;;;;18.35;47.56;99889.78;16124659;19;129990;-39
2022/09/29 02:20:29;;;;;;;0.30;0.30;;;;;;;18.34;47.10;99893.66;16125824;19;130493;-39
2022/09/29 02:25:54;;;;;;;0.47;0.40;;;;;;;18.34;47.23;99892.81;16125255;19;132368;-39
2022/09/29 02:31:16;;;;;;;0.55;0.50;;;;;;;18.32;47.51;99895.88;16125215;19;130120;-42
2022/09/29 02:36:47;;;;;;;0.20;0.20;;;;;;;18.32;47.42;99895.88;16123648;19;129500;-39
2022/09/29 02:42:26;;;;;;;0.32;0.32;;;;;;;18.31;47.37;99891.44;16124468;19;130510;-39
2022/09/29 02:48:15;;;;;;;0.57;0.40;;;;;;;18.29;47.25;99883.38;16124384;19;131309;-39
2022/09/29 02:53:52;;;;;;;0.30;0.20;;;;;;;18.28;47.42;99878.94;16124626;19;131912;-39
2022/09/29 02:59:23;;;;;;;0.55;0.28;;;;;;;18.26;47.49;99880.31;16126357;19;129600;-39
2022/09/29 03:04:45;;;;;;;0.40;0.30;;;;;;;18.23;47.46;99889.16;16124242;19;129382;-38
2022/09/29 03:10:09;;;;;;;0.63;0.30;;;;;;;18.25;47.44;99895.28;16122788;19;129295;-39
2022/09/29 03:15:30;;;;;;;0.32;0.25;;;;;;;18.24;47.48;99888.91;16124628;19;129856;-37
2022/09/29 03:20:54;;;;;;;0.30;0.30;;;;;;;18.23;47.08;99886.41;16120164;19;129555;-39
2022/09/29 03:26:15;;;;;;;0.50;0.30;;;;;;;18.23;47.20;99886.41;16120391;19;129590;-39
2022/09/29 03:31:40;;;;;;;0.50;0.30;;;;;;;18.23;47.39;99891.94;16119778;19;130020;-39
2022/09/29 03:37:02;;;;;;;0.57;0.30;;;;;;;18.22;46.94;99895.78;16120962;19;129389;-39
2022/09/29 03:42:27;;;;;;;0.30;0.30;;;;;;;18.21;47.33;99888.63;16117888;19;129727;-39
2022/09/29 03:47:48;;;;;;;0.85;0.40;;;;;;;18.20;47.18;99890.53;16118759;19;129576;-39
2022/09/29 03:53:10;;;;;;;0.57;0.30;;;;;;;18.19;47.31;99888.06;16119144;19;130611;-39
2022/09/29 03:58:32;;;;;;;0.28;0.28;;;;;;;18.19;47.33;99893.59;16122974;19;129484;-39
2022/09/29 04:03:54;;;;;;;0.30;0.28;;;;;;;18.18;47.37;99901.03;16122201;19;130147;-39
2022/09/29 04:09:15;;;;;;;0.30;0.30;;;;;;;18.17;47.17;99898.56;16120812;19;129503;-37
2022/09/29 04:14:37;;;;;;;0.30;0.30;;;;;;;18.17;46.88;99906.84;16119234;19;129597;-39
2022/09/29 04:20:01;;;;;;;0.52;0.38;;;;;;;18.14;46.89;99911.81;16117014;19;129805;-42
2022/09/29 04:25:23;;;;;;;2.08;0.30;;;;;;;18.15;46.92;99896.88;16116139;19;129841;-40
2022/09/29 04:30:45;;;;;;;0.57;0.32;;;;;;;18.13;47.13;99904.63;16120085;19;129820;-39
2022/09/29 04:36:07;;;;;;;0.40;0.30;;;;;;;18.14;47.04;99899.94;16116705;19;130802;-40
2022/09/29 04:41:32;;;;;;;1.92;0.35;;;;;;;18.13;46.88;99909.34;16118121;19;129486;-39
2022/09/29 04:46:54;;;;;;;0.63;0.30;;;;;;;18.12;46.86;99925.09;16118009;19;129693;-39
2022/09/29 04:52:15;;;;;;;1.08;0.30;;;;;;;18.11;47.18;99920.66;16114174;19;129442;-39
2022/09/29 04:57:38;;;;;;;1.15;0.50;;;;;;;18.11;47.07;99923.44;16121578;19;130467;-39
2022/09/29 05:03:00;;;;;;;2.67;0.47;;;;;;;18.10;46.87;99921.75;16131161;19;129969;-39
2022/09/29 05:08:21;;;;;;;0.50;0.30;;;;;;;18.10;47.08;99932.81;16131546;19;129654;-36
2022/09/29 05:13:43;;;;;;;0.50;0.40;;;;;;;18.09;47.10;99942.22;16128373;19;130632;-37
2022/09/29 05:19:05;;;;;;;0.75;0.45;;;;;;;18.09;46.86;99939.47;16129667;19;129661;-37
2022/09/29 05:24:27;;;;;;;5.00;0.30;;;;;;;18.10;46.99;99948.63;16131011;19;130416;-37
2022/09/29 05:29:49;;;;;;;0.70;0.40;;;;;;;18.09;46.50;99950.53;16130188;19;129685;-40
2022/09/29 05:35:10;;;;;;;1.27;0.68;;;;;;;18.08;46.67;99959.97;16130509;19;130509;-39
2022/09/29 05:40:32;;;;;;;0.47;0.40;;;;;;;18.08;46.41;99956.34;16128338;19;130549;-39
2022/09/29 05:45:59;;;;;;;0.88;0.52;;;;;;;18.08;46.41;99956.34;16127247;19;129870;-40
2022/09/29 05:51:23;;;;;;;4.43;0.70;;;;;;;18.07;46.49;99969.38;16125682;19;129625;-39
2022/09/29 05:56:44;;;;;;;5.28;0.77;;;;;;;18.07;46.54;99968.50;16126302;19;129691;-39
2022/09/29 06:02:07;;;;;;;3.03;0.60;;;;;;;18.08;46.17;99973.81;16129011;19;129628;-39
2022/09/29 06:07:29;;;;;;;1.55;0.45;;;;;;;18.08;46.53;99982.09;16126379;19;129419;-39
2022/09/29 06:12:51;;;;;;;1.08;0.50;;;;;;;18.07;46.37;99980.44;16126137;19;129768;-40
2022/09/29 06:18:13;;;;;;;0.32;0.30;;;;;;;18.09;46.23;99985.69;16126714;19;129582;-42
2022/09/29 06:23:35;;;;;;;4.97;0.40;;;;;;;18.10;46.18;99992.91;16127477;19;130847;-39
2022/09/29 06:28:57;;;;;;;1.50;0.40;;;;;;;18.13;46.46;99992.38;16127154;19;134876;-39
2022/09/29 06:34:19;;;;;;;1.88;0.57;;;;;;;18.20;45.76;99995.75;16124400;19;130031;-39
2022/09/29 06:39:40;;;;;;;1.90;0.70;;;;;;;18.28;45.57;100002.72;16123350;19;130069;-40
2022/09/29 06:45:02;;;;;;;2.17;0.50;;;;;;;18.36;45.94;100012.47;16126896;19;129517;-39
2022/09/29 06:50:24;;;;;;;2.45;0.60;;;;;;;18.45;45.66;100024.72;16124816;19;129300;-39
2022/09/29 06:55:55;;;;;;;0.75;0.47;;;;;;;18.55;45.29;100024.78;16127311;19;129014;-40
2022/09/29 07:01:17;;;;;;;2.22;0.73;;;;;;;18.61;45.29;100026.50;16122551;19;129655;-39
2022/09/29 07:06:39;;;;;;;1.30;0.40;;;;;;;18.68;45.63;100022.63;16124613;19;129277;-40
2022/09/29 07:12:01;;;;;;;2.08;0.47;;;;;;;18.76;45.58;100028.50;16126066;19;129398;-39
2022/09/29 07:17:22;;;;;;;2.63;0.52;;;;;;;19.13;45.05;100031.44;16126143;19;129654;-40
2022/09/29 07:22:47;;;;;;;3.90;0.60;;;;;;;20.31;43.13;100036.38;16123554;19;129443;-40
2022/09/29 07:28:09;;;;;;;1.02;0.40;;;;;;;22.42;39.98;100040.03;16123457;19;129366;-37
2022/09/29 07:33:31;;;;;;;2.65;0.60;;;;;;;23.93;37.17;100037.03;16121650;19;129639;-37
2022/09/29 07:38:59;;;;;;;1.35;0.43;;;;;;;25.00;35.33;100041.00;16120013;19;129727;-38
2022/09/29 07:44:21;;;;;;;2.05;0.50;;;;;;;25.77;33.84;100044.09;16121986;19;129639;-37
2022/09/29 07:49:43;;;;;;;0.75;0.22;;;;;;;26.37;32.65;100058.06;16122909;19;128939;-37
2022/09/29 07:55:06;;;;;;;1.25;0.40;;;;;;;26.65;31.93;100064.31;16120580;19;130271;-38
2022/09/29 08:00:31;;;;;;;1.70;0.40;;;;;;;25.86;32.52;100060.13;16122746;19;129373;-37
2022/09/29 08:05:54;;;;;;;0.50;0.40;;;;;;;24.46;34.09;100070.53;16118907;19;129248;-38
2022/09/29 08:11:21;;;;;;;1.60;0.60;;;;;;;23.29;36.06;100082.03;16120691;19;129845;-37
2022/09/29 08:16:52;;;;;;;0.57;0.40;;;;;;;22.36;37.64;100080.22;16121913;19;129567;-37
2022/09/29 08:22:13;;;;;;;1.58;0.40;;;;;;;21.72;38.52;100082.91;16118887;19;129533;-37
2022/09/29 08:27:35;;;;;;;0.80;0.47;;;;;;;21.25;39.68;100085.06;16121116;19;130864;-37
2022/09/29 08:33:13;;;;;;;0.82;0.40;;;;;;;20.87;39.97;100085.50;16126206;19;129735;-37
2022/09/29 08:38:41;;;;;;;0.80;0.35;;;;;;;20.62;40.62;100096.63;16137022;19;130833;-48
2022/09/29 08:44:12;;;;;;;0.45;0.20;;;;;;;20.39;41.29;100110.81;16133610;19;129545;-48
2022/09/29 08:50:13;;;;;;;2.58;0.60;;;;;;;20.20;41.62;100095.81;16136150;19;128963;-48
2022/09/29 08:55:51;;;;;;;1.05;0.43;;;;;;;20.06;42.41;100110.25;16134018;19;129448;-48
2022/09/29 09:01:32;;;;;;;0.68;0.40;;;;;;;19.93;42.52;100121.84;16135037;19;129627;-48
2022/09/29 09:07:02;;;;;;;1.42;0.47;;;;;;;19.80;42.75;100112.94;16133769;19;129509;-48
2022/09/29 09:12:48;;;;;;;0.70;0.35;;;;;;;19.74;43.24;100122.38;16133613;19;129241;-48
2022/09/29 09:18:41;;;;;;;0.70;0.45;;;;;;;19.63;43.39;100129.84;16134540;19;129561;-48
2022/09/29 09:24:14;;;;;;;1.17;0.35;;;;;;;19.55;43.21;100118.41;16132322;19;129419;-47
2022/09/29 09:29:41;;;;;;;0.52;0.45;;;;;;;19.48;43.37;100127.00;16136544;19;130367;-48
2022/09/29 09:35:02;;;;;;;0.95;0.35;;;;;;;19.42;43.56;100130.88;16131109;19;129398;-48
2022/09/29 09:40:47;;;;;;;0.60;0.40;;;;;;;19.36;43.63;100139.16;16130830;19;129387;-48
2022/09/29 09:46:19;;;;;;;1.67;0.30;;;;;;;19.31;43.79;100135.53;16127640;19;129612;-48
2022/09/29 09:52:02;;;;;;;1.27;0.32;;;;;;;19.27;43.94;100143.56;16131016;19;129828;-48
2022/09/29 09:57:48;;;;;;;0.40;0.40;;;;;;;19.20;44.54;100142.94;16128911;19;129376;-48
2022/09/29 10:03:11;;;;;;;0.63;0.30;;;;;;;19.13;44.67;100148.72;16128419;19;129131;-48
2022/09/29 10:08:38;;;;;;;0.40;0.20;;;;;;;19.08;44.68;100152.28;16128810;19;129528;-48
2022/09/29 10:14:10;;;;;;;2.38;0.40;;;;;;;19.05;44.75;100155.63;16128546;19;129649;-48
2022/09/29 10:19:55;;;;;;;1.42;0.50;;;;;;;19.03;44.92;100157.81;16129064;19;129788;-48
2022/09/29 10:25:19;;;;;;;0.57;0.38;;;;;;;18.98;44.77;100160.53;16128918;19;129316;-48
2022/09/29 10:30:40;;;;;;;0.50;0.40;;;;;;;18.95;44.73;100161.09;16128361;19;130131;-49
2022/09/29 10:36:09;;;;;;;0.95;0.40;;;;;;;18.93;45.28;100166.06;16125107;19;129388;-49
2022/09/29 10:41:52;;;;;;;0.52;0.30;;;;;;;18.91;45.15;100168.28;16127418;19;129528;-48
2022/09/29 10:47:14;;;;;;;0.65;0.40;;;;;;;18.88;45.15;100166.03;16126333;19;130159;-47
2022/09/29 10:52:36;;;;;;;0.95;0.40;;;;;;;18.86;45.16;100165.44;16125351;19;129912;-48
2022/09/29 10:58:04;;;;;;;1.08;0.45;;;;;;;18.84;45.25;100167.66;16122830;19;129635;-48
2022/09/29 11:03:27;;;;;;;1.17;0.50;;;;;;;18.82;45.25;100175.41;16119386;19;129540;-48
2022/09/29 11:08:54;;;;;;;1.08;0.40;;;;;;;18.83;45.32;100177.09;16129355;19;129729;-48
2022/09/29 11:14:30;;;;;;;1.25;0.30;;;;;;;18.82;45.44;100176.25;16124505;19;129393;-48
2022/09/29 11:19:54;;;;;;;1.15;0.40;;;;;;;18.77;45.62;100171.50;16127565;19;129856;-48
2022/09/29 11:25:26;;;;;;;0.60;0.40;;;;;;;18.76;45.38;100175.38;16126841;19;129604;-48
2022/09/29 11:31:01;;;;;;;0.85;0.40;;;;;;;18.77;45.56;100188.13;16126428;19;129549;-46
2022/09/29 11:36:49;;;;;;;0.50;0.30;;;;;;;18.77;45.68;100185.34;16121586;19;130095;-48
2022/09/29 11:42:25;;;;;;;1.27;0.30;;;;;;;18.76;45.65;100194.78;16119783;19;129407;-48
2022/09/29 11:48:23;;;;;;;0.30;0.30;;;;;;;18.77;45.27;100190.91;16123172;19;129767;-48
2022/09/29 11:53:50;;;;;;;0.82;0.30;;;;;;;18.73;45.77;100195.28;16123068;19;129393;-48
2022/09/29 11:59:27;;;;;;;0.68;0.30;;;;;;;18.74;45.85;100196.97;16121797;19;130945;-47
2022/09/29 12:04:51;;;;;;;0.20;0.20;;;;;;;18.71;45.40;100197.47;16123641;19;129560;-48
2022/09/29 12:10:37;;;;;;;0.80;0.30;;;;;;;18.71;45.60;100191.94;16120863;19;129258;-48
2022/09/29 12:16:06;;;;;;;0.10;0.10;;;;;;;18.69;45.77;100196.94;16120233;19;129920;-48
2022/09/29 12:21:36;;;;;;;0.43;0.30;;;;;;;18.70;46.03;100195.84;16122011;19;129390;-48
2022/09/29 12:27:02;;;;;;;0.90;0.20;;;;;;;18.70;45.81;100198.63;16122988;19;129226;-48
2022/09/29 12:32:30;;;;;;;0.88;0.40;;;;;;;18.73;45.60;100188.94;16121328;19;129200;-47
2022/09/29 12:37:58;;;;;;;1.13;0.17;;;;;;;18.72;45.75;100188.06;16121193;19;129380;-48
2022/09/29 12:43:26;;;;;;;0.30;0.20;;;;;;;18.73;45.94;100188.94;16118709;19;129237;-48
2022/09/29 12:49:12;;;;;;;0.43;0.20;;;;;;;18.74;45.70;100183.09;16120479;19;129306;-48
2022/09/29 12:54:34;;;;;;;0.55;0.20;;;;;;;18.72;45.61;100195.56;16122245;19;129837;-48
2022/09/29 13:00:11;;;;;;;0.38;0.30;;;;;;;18.74;45.90;100194.19;16125438;19;129485;-48
2022/09/29 13:06:01;;;;;;;0.57;0.20;;;;;;;18.73;45.85;100195.28;16119375;19;129421;-48
2022/09/29 13:11:32;;;;;;;0.40;0.20;;;;;;;18.72;46.05;100196.38;16116414;19;130116;-47
2022/09/29 13:17:13;;;;;;;0.68;0.30;;;;;;;18.70;45.98;100201.38;16114995;19;129607;-48
2022/09/29 13:23:10;;;;;;;0.32;0.30;;;;;;;18.70;46.06;100201.38;16129315;19;129573;-48
2022/09/29 13:28:40;;;;;;;0.47;0.20;;;;;;;18.68;45.89;100209.13;16133134;19;129551;-47
2022/09/29 13:34:04;;;;;;;0.80;0.30;;;;;;;18.66;45.74;100204.91;16130321;19;129494;-48
2022/09/29 13:39:27;;;;;;;0.50;0.20;;;;;;;18.64;46.12;100213.50;16127939;19;129528;-48
2022/09/29 13:45:19;;;;;;;0.80;0.50;;;;;;;18.64;45.98;100221.81;16129147;19;129027;-48
2022/09/29 13:50:46;;;;;;;0.35;0.20;;;;;;;18.60;46.02;100218.75;16128414;19;129136;-48
2022/09/29 13:56:10;;;;;;;1.65;0.40;;;;;;;18.58;45.96;100209.03;16128114;19;129614;-48
2022/09/29 14:01:34;;;;;;;0.13;0.10;;;;;;;18.58;45.63;100222.88;16130161;19;132714;-48
2022/09/29 14:07:00;;;;;;;0.70;0.20;;;;;;;18.57;45.63;100224.81;16131083;19;130210;-48
2022/09/29 14:12:26;;;;;;;0.43;0.30;;;;;;;18.57;45.67;100233.13;16129335;19;129880;-48
2022/09/29 14:17:57;;;;;;;0.25;0.15;;;;;;;18.58;45.56;100242.28;16131014;19;130328;-48
2022/09/29 14:23:50;;;;;;;0.25;0.20;;;;;;;18.57;46.02;100238.66;16127904;19;129136;-48
2022/09/29 14:29:17;;;;;;;0.43;0.25;;;;;;;18.57;45.84;100244.19;16127077;19;130175;-48
2022/09/29 14:34:39;;;;;;;0.50;0.25;;;;;;;18.57;45.68;100252.50;16127115;19;129290;-48
2022/09/29 14:51:57;;;;;;;0.30;0.20;;;;;;;18.60;45.83;100256.69;16125525;19;130239;-48
2022/09/29 14:57:39;;;;;;;0.30;0.10;;;;;;;18.60;46.03;100265.84;16124355;19;129292;-47
2022/09/29 15:03:01;;;;;;;1.13;0.13;;;;;;;18.61;45.64;100267.50;16127710;19;130242;-48
2022/09/29 15:08:51;;;;;;;0.17;0.10;;;;;;;18.65;46.00;100262.28;16126019;19;129552;-48
2022/09/29 15:14:29;;;;;;;0.10;0.10;;;;;;;18.64;45.84;100262.56;16125956;19;129658;-47
2022/09/29 15:20:10;;;;;;;0.30;0.20;;;;;;;18.63;45.56;100278.31;16124945;19;129779;-47
2022/09/29 15:25:43;;;;;;;0.45;0.10;;;;;;;18.63;45.96;100272.78;16124066;19;130828;-50
2022/09/29 15:31:16;;;;;;;0.20;0.20;;;;;;;18.63;45.58;100280.28;16127325;19;129980;-48
2022/09/29 15:36:40;;;;;;;0.10;0.10;;;;;;;18.60;45.68;100285.22;16124489;19;129529;-46
2022/09/29 15:42:12;;;;;;;0.30;0.20;;;;;;;18.60;45.67;100287.16;16120308;19;130096;-48
2022/09/29 15:47:37;;;;;;;0.10;0.10;;;;;;;18.58;45.54;100286.59;16123928;19;129286;-47
2022/09/29 15:53:02;;;;;;;2.47;0.30;;;;;;;18.57;45.85;100293.25;16121785;19;129747;-47
2022/09/29 15:58:24;;;;;;;3.50;0.37;;;;;;;18.58;45.38;100300.44;16118794;19;129454;-47
2022/09/29 16:04:01;;;;;;;2.78;0.50;;;;;;;18.58;45.74;100297.69;16122287;19;130081;-48
2022/09/29 16:09:23;;;;;;;2.38;0.30;;;;;;;18.57;45.55;100315.41;16120450;19;129194;-48
2022/09/29 16:14:46;;;;;;;3.13;0.43;;;;;;;18.57;45.31;100326.47;16117452;19;130230;-48
2022/09/29 16:20:18;;;;;;;3.93;0.90;;;;;;;18.56;45.60;100333.13;16123999;19;130071;-48
2022/09/29 16:25:39;;;;;;;1.13;0.43;;;;;;;18.54;45.49;100341.66;16120155;19;129382;-37
2022/09/29 16:31:25;;;;;;;16.08;1.08;;;;;;;18.54;45.82;100347.19;16118388;19;129623;-38
2022/09/29 16:36:50;;;;;;;4.07;0.77;;;;;;;18.50;45.56;100359.06;16114831;19;130526;-43
2022/09/29 16:42:25;;;;;;;14.23;3.47;;;;;;;18.53;45.94;100362.16;16118306;19;129471;-40
2022/09/29 16:47:53;;;;;;;11.40;4.18;;;;;;;18.57;46.70;100374.41;16115747;19;129366;-39
2022/09/29 16:53:23;;;;;;;14.02;4.03;;;;;;;18.65;46.27;100384.19;16121290;19;129522;-40
2022/09/29 16:59:00;;;;;;;13.48;3.55;;;;;;;;;;16129662;19;130323;-39
2022/09/29 17:04:22;;;;;;;19.08;3.38;;;;;;;19.26;45.80;100385.94;16127734;19;130372;-39
2022/09/29 17:09:54;;;;;;;16.48;3.33;;;;;;;19.64;45.82;100397.03;16129087;19;129233;-40
2022/09/29 17:15:17;;;;;;;14.40;2.75;;;;;;;19.91;45.20;100393.34;16130702;19;130919;-39
2022/09/29 17:20:39;;;;;;;30.65;3.15;;;;;;;20.06;45.11;100403.75;16131611;19;129198;-40
2022/09/29 17:28:10;;;;;;;18.42;2.78;;;;;;;20.11;45.40;100401.84;16130818;19;130406;-39
2022/09/29 17:31:42;;;;;;;12.10;2.35;;;;;;;20.11;45.27;100410.16;16128968;19;129743;-40
2022/09/29 17:37:04;;;;;;;13.15;2.38;;;;;;;20.05;45.53;100414.00;16129716;19;129762;-39
2022/09/29 17:42:26;;;;;;;12.95;2.08;;;;;;;19.99;45.42;100421.47;16125661;19;129275;-40
2022/09/29 17:47:48;;;;;;;15.40;2.85;;;;;;;19.93;46.03;100421.66;16047488;19;150864;-40
2022/09/29 17:53:12;;;;;;;9.50;1.88;;;;;;;19.83;45.86;100436.31;16128981;19;129595;-40
2022/09/29 17:58:34;;;;;;;18.08;3.10;;;;;;;19.76;46.24;100435.72;16126832;19;129818;-37
2022/09/29 18:03:56;;;;;;;18.58;2.40;;;;;;;19.67;46.39;100441.78;16128813;19;130430;-38
2022/09/29 18:09:18;;;;;;;11.07;2.45;;;;;;;19.63;46.53;100437.84;16126698;19;129261;-40
2022/09/29 18:14:39;;;;;;;15.65;1.90;;;;;;;19.63;46.32;100453.66;16126908;19;129821;-40
2022/09/29 18:20:13;;;;;;;21.98;2.20;;;;;;;19.57;46.91;100455.53;16128940;19;130063;-40
2022/09/29 18:25:35;;;;;;;14.15;2.28;;;;;;;19.54;46.92;100453.31;16129027;19;129790;-39
2022/09/29 18:31:22;;;;;;;9.95;1.67;;;;;;;19.61;47.24;100461.41;16127071;19;132163;-40
2022/09/29 18:36:44;;;;;;;15.38;1.92;;;;;;;19.63;46.72;100464.75;16127674;19;130213;-41
2022/09/29 18:42:07;;;;;;;9.40;1.60;;;;;;;19.67;47.04;100469.50;16125928;19;129737;-39
2022/09/29 18:47:29;;;;;;;18.13;1.63;;;;;;;19.69;47.01;100475.63;16123846;19;129372;-41
2022/09/29 18:52:51;;;;;;;10.07;1.38;;;;;;;19.74;47.04;100490.66;16125197;19;129859;-40
2022/09/29 18:58:17;;;;;;;10.30;1.95;;;;;;;19.75;47.26;100498.72;16122870;19;129276;-40
2022/09/29 19:03:39;;;;;;;12.48;1.52;;;;;;;19.79;46.91;100507.34;16123002;19;130793;-39
2022/09/29 19:09:01;;;;;;;7.30;1.60;;;;;;;19.83;46.98;100516.81;16124796;19;130346;-39
2022/09/29 19:14:23;;;;;;;7.18;1.20;;;;;;;19.86;47.31;100523.78;16119851;19;129837;-47
2022/09/29 19:19:44;;;;;;;7.22;1.10;;;;;;;19.89;47.22;100524.09;16118711;19;129951;-45
2022/09/29 19:25:11;;;;;;;9.13;1.63;;;;;;;19.95;47.01;100536.91;16117237;19;130581;-39
2022/09/29 19:30:36;;;;;;;9.60;1.30;;;;;;;20.01;46.93;100545.31;16119899;19;131156;-41
2022/09/29 19:36:03;;;;;;;6.50;1.30;;;;;;;20.06;46.68;100548.97;16116847;19;130708;-41
2022/09/29 19:41:25;;;;;;;8.13;1.60;;;;;;;20.08;46.82;100551.47;16118904;19;131027;-45
2022/09/29 19:46:51;;;;;;;9.67;1.47;;;;;;;20.13;46.53;100557.91;16121585;19;129744;-44
2022/09/29 19:52:13;;;;;;;10.52;1.48;;;;;;;20.19;46.30;100561.56;16124333;19;128996;-41
2022/09/29 19:57:39;;;;;;;7.25;1.23;;;;;;;20.26;46.47;100569.66;16120625;19;130694;-39
2022/09/29 20:03:01;;;;;;;10.38;1.33;;;;;;;20.32;46.37;100579.72;16117922;19;129352;-39
2022/09/29 20:08:23;;;;;;;4.55;1.05;;;;;;;20.36;46.39;100592.00;16115963;19;129726;-41
2022/09/29 20:13:45;;;;;;;8.18;1.25;;;;;;;20.38;46.11;100605.59;16118369;19;129926;-40
2022/09/29 20:19:09;;;;;;;3.42;0.90;;;;;;;20.36;46.83;100602.25;16120817;19;129462;-49
2022/09/29 20:24:31;;;;;;;9.27;1.05;;;;;;;20.32;46.91;100606.66;16122784;19;129309;-41
2022/09/29 20:29:53;;;;;;;4.88;1.00;;;;;;;20.26;46.98;100617.75;16130926;19;129034;-43
2022/09/29 20:35:15;;;;;;;2.53;0.80;;;;;;;20.19;47.22;100611.53;16122977;19;130947;-41
2022/09/29 20:40:37;;;;;;;7.55;1.05;;;;;;;20.15;46.91;100624.31;16130473;19;132426;-42
2022/09/29 20:46:04;;;;;;;6.38;1.20;;;;;;;20.14;46.92;100614.28;16129949;19;129630;-41
2022/09/29 20:51:25;;;;;;;9.45;1.23;;;;;;;20.10;46.92;100616.78;16130771;19;130300;-43
2022/09/29 20:56:49;;;;;;;5.50;1.48;;;;;;;20.06;47.20;100631.44;16129576;19;130413;-43
2022/09/29 21:02:12;;;;;;;6.63;1.08;;;;;;;20.00;47.10;100638.88;16131827;19;130637;-41
2022/09/29 21:07:34;;;;;;;7.78;1.25;;;;;;;19.95;47.27;100639.63;16132748;19;129589;-43
2022/09/29 21:12:56;;;;;;;6.70;0.90;;;;;;;19.93;47.32;100652.97;16135744;19;129142;-40
2022/09/29 21:18:17;;;;;;;7.97;1.00;;;;;;;19.91;46.88;100654.28;16130585;19;129477;-44
2022/09/29 21:23:41;;;;;;;7.03;1.15;;;;;;;19.87;47.24;100661.50;16132083;19;129560;-42
2022/09/29 21:29:03;;;;;;;6.78;0.90;;;;;;;19.85;47.62;100667.28;16129076;19;129345;-41
2022/09/29 21:34:25;;;;;;;15.10;1.35;;;;;;;19.82;47.23;100659.47;16130879;19;129570;-43
2022/09/29 21:39:46;;;;;;;11.30;1.67;;;;;;;19.80;47.49;100670.03;16124239;19;130379;-39
2022/09/29 21:45:09;;;;;;;5.63;0.85;;;;;;;19.77;47.31;100678.88;16126849;19;129680;-41
2022/09/29 21:50:31;;;;;;;10.98;2.17;;;;;;;19.74;47.32;100680.22;16125990;19;129466;-46
2022/09/29 21:55:53;;;;;;;6.68;1.27;;;;;;;19.74;47.25;100683.00;16129056;19;130068;-45
2022/09/29 22:01:15;;;;;;;7.57;1.33;;;;;;;19.73;46.79;100691.56;16128849;19;129741;-46
2022/09/29 22:06:38;;;;;;;7.22;1.00;;;;;;;19.66;47.34;100684.31;16129480;19;130674;-47
2022/09/29 22:11:59;;;;;;;11.40;1.20;;;;;;;19.62;47.27;100688.69;16126379;19;130559;-47
2022/09/29 22:17:21;;;;;;;9.15;1.10;;;;;;;19.59;46.82;100683.66;16130242;19;129701;-47
2022/09/29 22:22:43;;;;;;;4.10;1.33;;;;;;;19.56;47.22;100684.19;16129239;19;130566;-45
2022/09/29 22:28:05;;;;;;;5.30;0.88;;;;;;;19.53;46.68;100691.06;16127978;19;130321;-45
2022/09/29 22:33:26;;;;;;;6.10;0.80;;;;;;;19.51;46.67;100695.22;16124617;19;129641;-45
2022/09/29 22:38:48;;;;;;;5.57;0.80;;;;;;;19.48;46.79;100704.03;16130123;19;130621;-46
2022/09/29 22:44:10;;;;;;;3.60;0.90;;;;;;;19.46;47.01;100707.09;16124124;19;130707;-46
2022/09/29 22:49:31;;;;;;;1.13;0.60;;;;;;;19.44;46.79;100702.91;16128556;19;131494;-47
2022/09/29 22:54:53;;;;;;;2.60;0.70;;;;;;;19.42;46.89;100710.63;16124591;19;130686;-46
2022/09/29 23:00:15;;;;;;;4.63;0.70;;;;;;;19.40;46.97;100718.38;16124344;19;129932;-45
2022/09/29 23:05:40;;;;;;;7.55;1.05;;;;;;;19.36;47.08;100729.97;16127587;19;129735;-46
2022/09/29 23:11:06;;;;;;;4.47;0.52;;;;;;;19.32;46.75;100728.78;16127245;19;130403;-51
2022/09/29 23:16:28;;;;;;;3.58;0.60;;;;;;;19.30;47.16;100728.22;16124839;19;129566;-51
2022/09/29 23:21:50;;;;;;;2.22;0.45;;;;;;;19.28;46.74;100733.19;16124325;19;129926;-48
2022/09/29 23:27:12;;;;;;;1.50;0.60;;;;;;;19.26;47.02;100735.38;16126267;19;129557;-45
2022/09/29 23:32:34;;;;;;;1.00;0.60;;;;;;;19.25;47.18;100742.00;16125453;19;130645;-43
2022/09/29 23:43:36;;;;;;;2.38;0.47;;;;;;;19.20;47.00;100730.84;16125692;19;129693;-44
2022/09/29 23:49:00;;;;;;;1.60;0.52;;;;;;;19.18;46.74;100730.25;16121999;19;129698;-45
2022/09/29 23:54:23;;;;;;;1.33;0.60;;;;;;;19.16;47.24;100733.25;16125037;19;130712;-47
2022/09/29 23:59:45;;;;;;;1.02;0.40;;;;;;;19.12;46.80;100731.25;16122109;19;130360;-48
